East Carondelet, Illinois
Current Conditions -  °F | °C
As of 2:53 PM on Thursday 27 Nov 2014 (Local Time) from KCPS Reporting Station
Clear Clear  
Wind Chill: 25°   Ceiling: Unl
Heat Index: 34°   Visibility: 10mi
Dew Point: 22°   Wind: 12mph
Humidity: 61%   Direction: 330°NNW
Pressure: 30.46"   Gusts: NA
Location:  38.54°N, 90.23°W
Report Text: KCPS 272053Z 33010KT 10SM CLR 01/M06 A3046 RMK AO2 SLP316 T00111056 58004
Loading
Personal Weather Stations






























Interactive Weather Map New forecast layout! Learn more

10-Day Weather Forecast

Advertisements
Track Severe Weather on mobile